Time;durP1;ratioP1;P1;durP2;ratioP2;P2;SDS_P1;SDS_P2;PMS_P1;PMS_P2;Temp;Humidity;BMP_temperature;BMP_pressure;BME280_temperature;BME280_humidity;BME280_pressure;Samples;Min_cycle;Max_cycle;Signal;HPM_P1;HPM_P2
2022/05/27 00:01:28;;;;;;;7.97;2.42;;;;;;;17.08;58.69;101966.13;5157316;28;20424;-47
2022/05/27 00:04:05;;;;;;;8.85;2.50;;;;;;;17.01;58.91;101968.63;5156459;28;20821;-48
2022/05/27 00:06:42;;;;;;;9.68;2.65;;;;;;;16.90;59.08;101944.91;5152388;28;20850;-49
2022/05/27 00:09:16;;;;;;;7.25;2.85;;;;;;;16.80;59.26;101944.22;5143207;28;20432;-50
2022/05/27 00:11:49;;;;;;;10.70;2.70;;;;;;;16.92;59.19;101969.59;5147353;28;20913;-49
2022/05/27 00:14:24;;;;;;;8.40;2.40;;;;;;;16.89;59.32;101969.91;5154109;28;21648;-51
2022/05/27 00:16:56;;;;;;;9.00;2.72;;;;;;;16.89;59.27;101969.09;5158289;28;20998;-51
2022/05/27 00:19:29;;;;;;;10.77;3.20;;;;;;;16.92;59.43;101968.75;5156992;28;20437;-52
2022/05/27 00:22:04;;;;;;;6.50;2.50;;;;;;;16.88;59.29;101968.25;5152218;28;20795;-51
2022/05/27 00:24:38;;;;;;;10.52;2.97;;;;;;;16.85;59.34;101963.25;5152667;28;20464;-54
2022/05/27 00:27:11;;;;;;;9.73;3.30;;;;;;;16.85;59.33;101965.06;5155103;28;20921;-46
2022/05/27 00:29:44;;;;;;;13.38;3.17;;;;;;;16.78;59.41;101951.53;5159868;28;20836;-46
2022/05/27 00:32:16;;;;;;;13.35;3.75;;;;;;;16.69;59.44;101936.47;5160403;28;20512;-45
2022/05/27 00:34:49;;;;;;;11.18;3.28;;;;;;;16.76;59.68;101961.56;5170448;28;20456;-45
2022/05/27 00:37:21;;;;;;;12.87;3.27;;;;;;;16.75;59.71;101958.03;5164736;28;20838;-48
2022/05/27 00:39:56;;;;;;;13.20;3.90;;;;;;;16.74;59.76;101955.50;5165736;28;20439;-44
2022/05/27 00:42:28;;;;;;;12.00;2.80;;;;;;;16.74;59.79;101951.00;5167670;28;20540;-48
2022/05/27 00:45:03;;;;;;;16.58;3.75;;;;;;;16.53;59.99;101916.78;5166909;28;20412;-46
2022/05/27 00:47:39;;;;;;;14.10;3.35;;;;;;;16.33;59.95;101888.72;5167062;28;20467;-45
2022/05/27 00:50:16;;;;;;;14.05;3.38;;;;;;;16.71;59.95;101950.50;5155802;28;20415;-47
2022/05/27 00:52:52;;;;;;;10.07;3.50;;;;;;;16.76;59.88;101964.22;5165831;28;20430;-51
2022/05/27 00:55:31;;;;;;;14.63;4.07;;;;;;;16.74;59.95;101956.34;5166941;28;20429;-48
2022/05/27 00:58:23;;;;;;;22.73;4.13;;;;;;;16.69;59.96;101958.69;5167377;28;20470;-50
2022/05/27 01:00:55;;;;;;;13.32;3.67;;;;;;;16.71;59.85;101958.50;5166006;28;20500;-47
2022/05/27 01:03:32;;;;;;;17.35;3.90;;;;;;;16.56;60.20;101935.13;5166868;28;20530;-48
2022/05/27 01:06:04;;;;;;;16.23;3.80;;;;;;;16.63;60.02;101945.13;5149682;28;20714;-46
2022/05/27 01:08:37;;;;;;;15.60;4.13;;;;;;;16.78;60.13;101962.22;5165762;28;20495;-49
2022/05/27 01:11:24;;;;;;;14.65;3.22;;;;;;;16.79;60.09;101955.91;5161251;28;20456;-45
2022/05/27 01:14:14;;;;;;;12.88;3.63;;;;;;;16.78;60.36;101960.38;5166981;28;20839;-46
2022/05/27 01:16:57;;;;;;;11.20;2.63;;;;;;;16.71;60.20;101945.16;5164812;28;20924;-47
2022/05/27 01:20:19;;;;;;;16.27;3.20;;;;;;;16.76;60.28;101965.06;5164448;28;20496;-49
2022/05/27 01:23:42;;;;;;;14.00;3.60;;;;;;;16.77;60.42;101968.56;5159000;28;20440;-49
2022/05/27 01:27:14;;;;;;;9.82;2.70;;;;;;;16.69;60.58;101957.81;5162475;28;20820;-48
2022/05/27 01:30:25;;;;;;;10.23;3.07;;;;;;;16.70;60.60;101957.69;5166973;28;20504;-48
2022/05/27 01:33:17;;;;;;;12.40;3.20;;;;;;;16.70;60.53;101964.84;5172035;28;20452;-45
2022/05/27 01:36:01;;;;;;;8.13;2.92;;;;;;;16.66;60.59;101960.81;5144390;28;20500;-46
2022/05/27 01:38:41;;;;;;;11.45;3.15;;;;;;;16.65;60.67;101961.81;5160307;28;20413;-49
2022/05/27 01:41:23;;;;;;;15.07;3.38;;;;;;;16.67;60.52;101959.84;5134131;28;20434;-51
2022/05/27 01:43:59;;;;;;;10.07;3.05;;;;;;;16.68;60.49;101959.66;5126261;28;20554;-46
2022/05/27 01:46:37;;;;;;;9.85;2.70;;;;;;;16.66;60.47;101963.47;5152588;28;20411;-46
2022/05/27 01:49:27;;;;;;;10.25;3.00;;;;;;;16.68;60.61;101965.00;5152100;28;20444;-50
2022/05/27 01:52:06;;;;;;;10.65;2.90;;;;;;;16.71;60.56;101971.84;5155543;28;20418;-49
2022/05/27 01:54:49;;;;;;;7.72;3.10;;;;;;;15.92;60.47;101840.63;5154908;28;20561;-50
2022/05/27 01:57:28;;;;;;;14.20;3.37;;;;;;;16.71;60.36;101971.84;5154240;28;20831;-47
2022/05/27 02:00:11;;;;;;;9.65;3.00;;;;;;;16.62;60.64;101957.63;5135895;28;20568;-48
2022/05/27 02:02:51;;;;;;;9.73;2.85;;;;;;;16.69;60.38;101966.69;5147116;28;20424;-45
2022/05/27 02:05:33;;;;;;;11.95;3.28;;;;;;;16.70;60.44;101975.53;5157631;28;20838;-55
2022/05/27 02:08:10;;;;;;;9.48;2.95;;;;;;;16.67;60.59;101976.66;5152136;28;20508;-49
2022/05/27 02:10:50;;;;;;;10.38;3.13;;;;;;;16.54;60.46;101961.13;5148249;28;20883;-51
2022/05/27 02:13:30;;;;;;;11.68;3.35;;;;;;;16.69;60.39;101968.50;5156741;28;20464;-48
2022/05/27 02:16:04;;;;;;;15.52;3.28;;;;;;;16.69;60.21;101971.16;5154489;28;20409;-50
2022/05/27 02:18:45;;;;;;;13.05;3.80;;;;;;;16.66;60.17;101967.00;5157488;28;20485;-49
2022/05/27 02:21:29;;;;;;;17.02;2.90;;;;;;;16.65;60.15;101972.50;5147892;28;20900;-47
2022/05/27 02:24:06;;;;;;;14.43;3.43;;;;;;;16.64;60.10;101970.84;5156904;28;20524;-52
2022/05/27 02:26:44;;;;;;;14.32;3.60;;;;;;;16.63;60.10;101963.81;5155382;28;20536;-45
2022/05/27 02:29:22;;;;;;;11.07;3.28;;;;;;;16.55;60.00;101965.47;5131621;28;20459;-48
2022/05/27 02:32:01;;;;;;;16.80;3.50;;;;;;;16.59;60.22;101969.47;5151456;28;20571;-46
2022/05/27 02:37:42;;;;;;;13.60;3.85;;;;;;;16.54;60.18;101963.78;5157720;28;20406;-47
2022/05/27 02:40:18;;;;;;;12.80;3.30;;;;;;;16.45;60.23;101958.59;5148992;28;20912;-49
2022/05/27 02:43:02;;;;;;;13.48;3.15;;;;;;;16.30;60.12;101926.38;5159049;28;20424;-46
2022/05/27 02:45:42;;;;;;;18.60;3.72;;;;;;;16.17;60.00;101924.16;5155703;28;20509;-49
2022/05/27 02:48:31;;;;;;;9.10;3.20;;;;;;;16.52;60.13;101960.44;5139401;28;20409;-52
2022/05/27 02:51:15;;;;;;;26.75;3.90;;;;;;;16.49;60.08;101947.44;5140419;28;20521;-47
2022/05/27 02:54:05;;;;;;;16.38;4.30;;;;;;;16.49;60.10;101958.09;5154028;28;20822;-49
2022/05/27 02:56:44;;;;;;;9.90;3.53;;;;;;;16.41;60.08;101938.56;5157246;28;20427;-47
2022/05/27 02:59:19;;;;;;;11.50;3.60;;;;;;;16.48;60.13;101951.09;5155672;28;20440;-48
2022/05/27 03:01:52;;;;;;;18.33;4.07;;;;;;;16.53;60.09;101955.94;5152010;28;20915;-48
2022/05/27 03:04:24;;;;;;;14.80;3.35;;;;;;;16.52;59.98;101960.44;5154361;28;20484;-49
2022/05/27 03:07:08;;;;;;;7.40;2.60;;;;;;;16.36;60.21;101937.22;5154893;28;20926;-49
2022/05/27 03:09:53;;;;;;;8.13;3.13;;;;;;;16.49;60.08;101958.09;5139769;28;20499;-50
2022/05/27 03:12:40;;;;;;;11.40;2.90;;;;;;;16.42;60.13;101946.41;5130717;28;20550;-55
2022/05/27 03:15:26;;;;;;;10.43;2.70;;;;;;;16.39;60.14;101957.41;5152969;28;20430;-51
2022/05/27 03:18:27;;;;;;;10.10;3.50;;;;;;;16.41;60.05;101947.41;5157567;28;20888;-52
2022/05/27 03:21:11;;;;;;;9.38;2.85;;;;;;;16.46;59.90;101953.09;5155541;28;20486;-48
2022/05/27 03:24:14;;;;;;;13.02;2.70;;;;;;;16.47;59.72;101952.09;5146089;28;20898;-49
2022/05/27 03:26:59;;;;;;;9.73;2.30;;;;;;;16.45;59.65;101946.09;5148949;28;20476;-48
2022/05/27 03:29:44;;;;;;;11.63;3.25;;;;;;;16.46;59.36;101947.75;5154096;28;20547;-52
2022/05/27 03:32:27;;;;;;;11.18;2.92;;;;;;;16.40;59.40;101939.56;5151251;28;20857;-52
2022/05/27 03:35:08;;;;;;;9.98;2.95;;;;;;;16.45;59.23;101956.75;5126950;28;20902;-48
2022/05/27 03:37:45;;;;;;;10.18;3.47;;;;;;;16.45;59.21;101959.44;5153593;28;20436;-51
2022/05/27 03:40:24;;;;;;;6.67;2.90;;;;;;;16.44;59.18;101957.75;5155864;28;20514;-48
2022/05/27 03:43:01;;;;;;;11.30;3.65;;;;;;;16.49;59.27;101960.78;5158820;28;20526;-47
2022/05/27 03:45:52;;;;;;;12.52;3.63;;;;;;;16.45;59.24;101955.94;5144608;28;20417;-51
2022/05/27 03:48:27;;;;;;;10.65;3.33;;;;;;;16.45;59.47;101954.09;5151107;28;20430;-50
2022/05/27 03:51:11;;;;;;;13.70;2.97;;;;;;;16.42;59.35;101958.94;5155398;28;20419;-50
2022/05/27 03:56:37;;;;;;;5.85;2.70;;;;;;;16.30;59.33;101942.38;5159554;28;20489;-50
2022/05/27 03:59:12;;;;;;;13.63;3.58;;;;;;;16.27;59.22;101932.03;5155516;28;20419;-47
2022/05/27 04:01:47;;;;;;;13.93;3.15;;;;;;;16.34;59.10;101951.72;5160822;28;20493;-52
2022/05/27 04:04:23;;;;;;;7.70;2.40;;;;;;;16.15;59.40;101928.81;5155902;28;20437;-48
2022/05/27 04:06:55;;;;;;;9.02;3.00;;;;;;;16.39;59.13;101957.41;5162779;28;20505;-47
2022/05/27 04:09:28;;;;;;;12.10;2.60;;;;;;;16.40;58.93;101961.72;5157291;28;20427;-48
2022/05/27 04:12:02;;;;;;;13.43;2.92;;;;;;;16.18;58.79;101925.00;5150754;28;20419;-52
2022/05/27 04:14:34;;;;;;;15.32;2.50;;;;;;;16.30;58.85;101943.22;5152153;28;20478;-47
2022/05/27 04:19:57;;;;;;;9.15;3.33;;;;;;;16.02;58.68;101918.59;5151885;28;20427;-48
2022/05/27 04:22:30;;;;;;;11.50;3.10;;;;;;;16.16;58.49;101930.47;5142020;28;20712;-51
2022/05/27 04:25:03;;;;;;;13.27;3.55;;;;;;;16.28;58.45;101949.69;5156953;28;20507;-48
2022/05/27 04:27:40;;;;;;;10.52;2.90;;;;;;;16.30;58.67;101969.88;5154050;28;20438;-52
2022/05/27 04:30:14;;;;;;;10.32;2.55;;;;;;;16.28;58.52;101976.34;5149132;28;20436;-51
2022/05/27 04:32:46;;;;;;;10.20;2.73;;;;;;;16.09;58.25;101940.94;5151723;28;20978;-48
2022/05/27 04:35:19;;;;;;;10.07;3.10;;;;;;;16.32;58.25;101980.34;5156502;28;20504;-50
2022/05/27 04:37:51;;;;;;;10.13;2.78;;;;;;;16.36;58.18;101979.88;5156327;28;20424;-47
2022/05/27 04:40:24;;;;;;;12.15;2.85;;;;;;;16.36;58.19;101992.38;5164451;28;20496;-51
2022/05/27 04:42:58;;;;;;;13.57;3.27;;;;;;;16.23;58.03;101967.97;5168987;28;20513;-51
2022/05/27 04:45:31;;;;;;;8.57;2.60;;;;;;;16.27;58.01;101988.84;5165239;28;20552;-50
2022/05/27 04:48:04;;;;;;;16.17;3.80;;;;;;;16.28;58.02;101993.16;5167635;28;20479;-50
2022/05/27 04:50:37;;;;;;;14.60;3.42;;;;;;;16.33;57.70;101990.88;5167165;28;20447;-51
2022/05/27 04:53:10;;;;;;;16.52;3.38;;;;;;;16.34;57.34;101984.53;5163525;28;20484;-44
2022/05/27 04:55:43;;;;;;;9.43;2.30;;;;;;;16.41;57.41;102003.38;5166511;28;20439;-52
2022/05/27 04:58:17;;;;;;;14.88;3.03;;;;;;;16.31;57.27;101992.03;5166107;28;20500;-50
2022/05/27 05:00:50;;;;;;;12.23;3.55;;;;;;;16.22;57.10;101976.97;5165903;28;20452;-46
2022/05/27 05:03:28;;;;;;;10.70;3.33;;;;;;;16.48;57.07;102004.44;5166557;28;20420;-47
2022/05/27 05:06:04;;;;;;;10.10;3.17;;;;;;;16.44;56.83;101995.06;5165269;28;20979;-47
2022/05/27 05:08:39;;;;;;;17.73;3.80;;;;;;;16.49;56.50;102003.44;5160023;28;20434;-51
2022/05/27 05:11:12;;;;;;;16.98;3.95;;;;;;;16.34;56.21;101965.03;5162794;28;20729;-47
2022/05/27 05:13:46;;;;;;;14.45;3.60;;;;;;;16.50;55.97;101999.75;5166206;28;20507;-51
2022/05/27 05:16:18;;;;;;;13.65;3.17;;;;;;;16.60;55.79;102011.16;5166068;28;20440;-47
2022/05/27 05:18:51;;;;;;;18.05;3.85;;;;;;;16.69;55.50;102003.16;5166764;28;20440;-51
2022/05/27 05:21:25;;;;;;;14.52;4.00;;;;;;;16.74;55.36;102003.53;5166046;28;20490;-49
2022/05/27 05:23:57;;;;;;;20.00;4.47;;;;;;;16.65;55.34;101989.31;5152683;28;20495;-48
2022/05/27 05:26:30;;;;;;;18.70;3.50;;;;;;;16.76;55.04;101989.06;5146914;28;20385;-50
2022/05/27 05:29:05;;;;;;;13.75;3.08;;;;;;;16.97;54.78;102009.97;5166953;28;20429;-49
2022/05/27 05:31:38;;;;;;;11.53;3.67;;;;;;;16.88;54.95;102000.28;5155721;28;20421;-50
2022/05/27 05:34:10;;;;;;;13.38;4.13;;;;;;;17.08;54.53;102022.16;5114294;28;20421;-51
2022/05/27 05:36:43;;;;;;;13.50;3.65;;;;;;;17.03;54.32;102014.66;5155340;28;20419;-51
2022/05/27 05:39:16;;;;;;;19.05;4.80;;;;;;;17.19;54.17;102029.03;5143294;28;20442;-50
2022/05/27 05:41:58;;;;;;;13.73;4.15;;;;;;;17.26;53.69;102024.72;5148408;28;20469;-49
2022/05/27 05:44:31;;;;;;;16.77;4.03;;;;;;;17.26;53.33;102022.03;5149653;28;20423;-52
2022/05/27 05:47:06;;;;;;;22.08;4.45;;;;;;;17.18;53.32;102000.66;5148408;28;20529;-52
2022/05/27 05:49:39;;;;;;;18.27;4.17;;;;;;;16.96;53.28;101970.94;5146454;28;20418;-53
2022/05/27 05:52:11;;;;;;;23.08;4.43;;;;;;;17.35;52.90;102023.72;5134721;28;20509;-53
2022/05/27 05:54:43;;;;;;;20.53;3.93;;;;;;;17.51;52.66;102049.59;5149528;28;20781;-46
2022/05/27 05:57:16;;;;;;;15.48;3.50;;;;;;;17.32;52.59;102000.00;5147948;28;20785;-50
2022/05/27 05:59:50;;;;;;;19.77;3.92;;;;;;;17.64;52.18;102049.94;5144606;28;20441;-48
2022/05/27 06:02:22;;;;;;;15.48;3.88;;;;;;;17.75;52.10;102043.44;5146366;28;20791;-53
2022/05/27 06:04:56;;;;;;;15.10;3.92;;;;;;;17.63;51.71;102020.72;5150360;28;20420;-53
2022/05/27 06:07:36;;;;;;;15.10;3.60;;;;;;;17.75;51.76;102051.44;5153841;28;20586;-50
2022/05/27 06:10:17;;;;;;;22.80;4.45;;;;;;;17.73;51.72;102048.94;5160757;28;20416;-55
2022/05/27 06:12:50;;;;;;;15.13;4.03;;;;;;;17.77;51.55;102062.81;5158311;28;20421;-50
2022/05/27 06:15:24;;;;;;;18.92;4.35;;;;;;;17.76;51.36;102050.44;5158640;28;20678;-50
2022/05/27 06:18:00;;;;;;;18.38;3.95;;;;;;;17.61;51.34;102052.09;5159530;28;20918;-51
2022/05/27 06:20:34;;;;;;;21.27;4.07;;;;;;;17.39;51.23;102018.88;5158082;28;20422;-51
2022/05/27 06:23:08;;;;;;;17.45;4.85;;;;;;;17.60;51.34;102058.47;5165701;28;20420;-52
2022/05/27 06:25:40;;;;;;;14.47;4.13;;;;;;;17.74;50.71;102066.66;5153615;28;20512;-42
2022/05/27 06:36:46;;;;;;;24.50;4.83;;;;;;;18.01;50.30;102085.19;5160209;28;20500;-48
2022/05/27 06:39:18;;;;;;;18.00;4.40;;;;;;;18.08;50.08;102086.19;5166543;28;20428;-52
2022/05/27 06:41:51;;;;;;;17.98;4.50;;;;;;;18.18;50.02;102081.50;5161025;28;20432;-47
2022/05/27 06:44:24;;;;;;;16.10;3.97;;;;;;;18.15;49.80;102080.00;5163561;28;20448;-48
2022/05/27 06:47:19;;;;;;;23.67;4.43;;;;;;;18.19;49.63;102092.03;5164510;28;20444;-50
2022/05/27 06:49:52;;;;;;;19.63;4.25;;;;;;;18.03;49.72;102076.00;5144603;28;20438;-50
2022/05/27 06:52:24;;;;;;;19.70;4.47;;;;;;;18.14;49.57;102085.50;5157919;28;20932;-50
2022/05/27 06:54:57;;;;;;;17.15;3.95;;;;;;;18.24;49.62;102090.66;5167179;28;20424;-51
2022/05/27 06:57:29;;;;;;;16.25;4.03;;;;;;;18.35;49.30;102098.34;5161766;28;21152;-49
2022/05/27 07:00:03;;;;;;;19.63;4.47;;;;;;;18.41;49.07;102106.53;5162498;28;20421;-48
2022/05/27 07:02:37;;;;;;;19.40;4.03;;;;;;;18.51;48.94;102100.16;5158092;28;20502;-48
2022/05/27 07:05:12;;;;;;;23.67;4.78;;;;;;;18.68;48.79;102107.13;5142928;28;20457;-43
2022/05/27 07:07:45;;;;;;;17.58;4.03;;;;;;;19.00;48.68;102089.31;5159727;28;20416;-51
2022/05/27 07:10:17;;;;;;;17.13;3.85;;;;;;;19.41;48.34;102099.78;5166506;28;21077;-52
2022/05/27 07:12:49;;;;;;;17.85;4.32;;;;;;;20.37;48.07;102092.97;5156443;28;20424;-54
2022/05/27 07:15:25;;;;;;;12.70;3.83;;;;;;;21.39;46.78;102095.75;5152364;28;20413;-49
2022/05/27 07:18:00;;;;;;;17.27;4.30;;;;;;;21.55;46.36;102087.44;5155226;28;20470;-51
2022/05/27 07:20:33;;;;;;;18.90;3.70;;;;;;;21.48;45.96;102042.72;5161896;28;20943;-49
2022/05/27 07:23:06;;;;;;;14.82;3.33;;;;;;;22.60;45.53;102084.94;5163754;28;20416;-52
2022/05/27 07:25:40;;;;;;;13.48;3.10;;;;;;;23.01;44.88;102076.88;5155173;28;20419;-52
2022/05/27 07:28:13;;;;;;;12.13;3.20;;;;;;;23.13;44.63;102087.88;5140723;28;20855;-51
2022/05/27 07:30:46;;;;;;;16.20;3.57;;;;;;;23.23;44.55;102101.81;5143866;28;20459;-50
2022/05/27 07:33:20;;;;;;;12.48;3.63;;;;;;;23.02;44.57;102106.28;5132076;28;20446;-50
2022/05/27 07:35:52;;;;;;;13.57;3.15;;;;;;;22.79;44.51;102111.97;5120697;28;20439;-50
2022/05/27 07:38:28;;;;;;;11.90;3.67;;;;;;;22.56;44.55;102101.47;5146820;28;20444;-51
2022/05/27 07:41:00;;;;;;;15.35;4.03;;;;;;;22.37;44.39;102088.75;5143214;28;20511;-53
2022/05/27 07:43:34;;;;;;;10.20;3.08;;;;;;;22.91;44.04;102087.97;5104673;28;20969;-50
2022/05/27 07:46:07;;;;;;;12.82;3.45;;;;;;;22.92;44.06;102073.50;5136964;28;20822;-51
2022/05/27 07:48:44;;;;;;;13.77;3.40;;;;;;;23.38;43.71;102099.78;5143114;28;20517;-52
2022/05/27 07:51:16;;;;;;;13.82;4.22;;;;;;;23.56;43.52;102090.25;5139497;28;20417;-49
2022/05/27 07:53:51;;;;;;;16.52;3.90;;;;;;;23.63;43.35;102113.50;5120078;28;21021;-47
2022/05/27 07:56:23;;;;;;;16.95;3.92;;;;;;;23.65;43.12;102110.59;5119843;28;20530;-49
2022/05/27 07:58:56;;;;;;;16.73;4.10;;;;;;;23.41;42.88;102123.63;5139868;28;20414;-49
2022/05/27 08:01:28;;;;;;;14.23;3.60;;;;;;;22.87;43.00;102100.19;5139710;28;20561;-47
2022/05/27 08:04:02;;;;;;;16.52;3.70;;;;;;;22.84;43.53;102114.06;5117810;28;20406;-51
2022/05/27 08:06:35;;;;;;;20.90;4.00;;;;;;;23.13;43.45;102117.50;5140766;28;20423;-51
2022/05/27 08:09:08;;;;;;;12.53;3.50;;;;;;;23.40;42.98;102118.44;5139217;28;20541;-51
2022/05/27 08:11:40;;;;;;;14.65;4.45;;;;;;;23.33;42.79;102118.41;5132018;28;20863;-49
2022/05/27 08:14:12;;;;;;;13.77;3.50;;;;;;;23.21;42.88;102130.81;5148459;28;20461;-52
2022/05/27 08:16:45;;;;;;;17.10;3.30;;;;;;;23.29;42.73;102109.09;5137074;28;20467;-52
2022/05/27 08:19:19;;;;;;;12.70;3.85;;;;;;;23.41;42.51;102129.03;5137903;28;20433;-52
2022/05/27 08:21:51;;;;;;;14.90;3.50;;;;;;;23.22;42.23;102136.00;5127268;28;20532;-52
2022/05/27 08:24:24;;;;;;;15.88;4.03;;;;;;;22.79;42.66;102127.28;5144095;28;20436;-53
2022/05/27 08:26:56;;;;;;;15.32;4.05;;;;;;;22.64;42.78;102135.50;5159499;28;20428;-50
2022/05/27 08:29:29;;;;;;;16.25;4.38;;;;;;;22.12;42.63;102066.81;5140715;28;20447;-52
2022/05/27 08:32:03;;;;;;;18.40;3.45;;;;;;;22.43;42.58;102141.78;5126175;28;20895;-51
2022/05/27 08:40:33;;;;;;;16.42;3.47;;;;;;;21.59;43.30;102147.88;5157409;28;20420;-51
2022/05/27 08:43:18;;;;;;;18.27;3.88;;;;;;;21.55;42.95;102154.63;5152099;28;20420;-48
2022/05/27 08:46:01;;;;;;;15.60;4.13;;;;;;;21.48;42.88;102145.69;5138104;28;20430;-52
2022/05/27 08:48:40;;;;;;;16.77;4.18;;;;;;;20.96;43.02;102082.22;5142329;28;20476;-48
2022/05/27 08:51:19;;;;;;;15.63;3.47;;;;;;;21.29;43.11;102157.00;5149332;28;21035;-46
2022/05/27 08:53:56;;;;;;;19.67;4.10;;;;;;;21.26;43.10;102152.00;5148883;28;20443;-51
2022/05/27 08:59:31;;;;;;;15.38;4.53;;;;;;;21.40;42.71;102159.25;5150021;28;20417;-52
2022/05/27 09:02:13;;;;;;;22.42;4.78;;;;;;;21.46;42.27;102153.09;5137823;28;20895;-48
2022/05/27 09:04:52;;;;;;;15.02;4.07;;;;;;;21.58;42.05;102159.63;5146528;28;20609;-52
2022/05/27 09:07:39;;;;;;;15.75;3.83;;;;;;;21.80;42.06;102162.34;5136654;28;20426;-54
2022/05/27 09:10:18;;;;;;;12.00;3.75;;;;;;;21.80;41.90;102171.25;5136194;28;20905;-47
2022/05/27 09:13:14;;;;;;;14.50;3.30;;;;;;;21.78;41.90;102172.47;5149607;28;21295;-47
2022/05/27 09:15:58;;;;;;;18.42;4.35;;;;;;;21.90;41.66;102170.94;5148763;28;21168;-52
2022/05/27 09:18:42;;;;;;;22.80;4.87;;;;;;;21.95;41.67;102173.84;5120310;28;20440;-51
2022/05/27 09:21:28;;;;;;;17.38;4.45;;;;;;;21.89;41.45;102153.13;5146162;28;20412;-49
2022/05/27 09:24:45;;;;;;;20.52;4.03;;;;;;;22.14;41.25;102168.84;5139890;28;20422;-47
2022/05/27 09:27:26;;;;;;;23.25;5.47;;;;;;;21.94;41.37;102148.00;5140981;28;20414;-50
2022/05/27 09:30:04;;;;;;;19.35;4.85;;;;;;;22.10;41.15;102163.84;5148585;28;20424;-49
2022/05/27 09:32:47;;;;;;;22.17;5.03;;;;;;;22.12;41.01;102179.81;5146968;28;20504;-49
2022/05/27 09:35:22;;;;;;;14.02;4.85;;;;;;;21.96;41.09;102150.50;5146927;28;20409;-55
2022/05/27 09:38:00;;;;;;;15.10;4.18;;;;;;;22.24;40.91;102177.47;5142149;28;20511;-50
2022/05/27 09:40:39;;;;;;;13.48;4.22;;;;;;;22.43;40.68;102190.25;5154120;28;20483;-51
2022/05/27 09:43:19;;;;;;;17.08;4.30;;;;;;;22.42;40.62;102180.53;5151596;28;20555;-50
2022/05/27 09:45:55;;;;;;;15.97;4.63;;;;;;;22.50;40.64;102201.88;5151727;28;20421;-50
2022/05/27 09:48:28;;;;;;;14.17;3.80;;;;;;;22.60;40.47;102181.88;5150736;28;20472;-51
2022/05/27 09:51:07;;;;;;;12.27;3.40;;;;;;;22.68;40.21;102168.25;5149157;28;20429;-49
2022/05/27 09:53:44;;;;;;;11.63;3.58;;;;;;;22.76;40.10;102186.94;5145657;28;20416;-49
2022/05/27 09:56:36;;;;;;;10.88;3.13;;;;;;;22.63;40.35;102184.16;5148492;28;20459;-48
2022/05/27 09:59:25;;;;;;;12.68;3.85;;;;;;;22.60;40.37;102192.63;5156277;28;20426;-48
2022/05/27 10:02:20;;;;;;;13.68;3.90;;;;;;;22.71;40.14;102181.34;5139729;28;20432;-49
2022/05/27 10:04:57;;;;;;;13.90;4.05;;;;;;;22.77;39.66;102180.53;5148542;28;20892;-50
2022/05/27 10:07:42;;;;;;;13.40;3.67;;;;;;;22.72;39.61;102191.06;5152133;28;20545;-48
2022/05/27 10:10:28;;;;;;;10.23;3.10;;;;;;;22.70;39.65;102180.50;5147632;28;20416;-48
2022/05/27 10:13:18;;;;;;;13.23;3.28;;;;;;;22.72;39.61;102191.06;5088243;28;20439;-52
2022/05/27 10:15:51;;;;;;;13.35;3.42;;;;;;;22.88;39.42;102200.69;5142187;28;20421;-48
2022/05/27 10:18:26;;;;;;;13.37;3.30;;;;;;;22.90;39.05;102196.78;5146210;28;20479;-51
2022/05/27 10:21:03;;;;;;;14.15;3.10;;;;;;;22.99;38.98;102202.88;5141102;28;20512;-52
2022/05/27 10:23:38;;;;;;;13.67;3.30;;;;;;;22.97;38.55;102200.34;5138529;28;20938;-48
2022/05/27 10:26:23;;;;;;;12.73;3.10;;;;;;;23.04;38.41;102200.38;5146876;28;20835;-48
2022/05/27 10:29:06;;;;;;;13.82;3.42;;;;;;;22.99;38.49;102209.09;5143183;28;20430;-51
2022/05/27 10:31:48;;;;;;;14.40;3.50;;;;;;;22.79;38.75;102213.47;5145557;28;20473;-52
2022/05/27 10:34:43;;;;;;;13.45;3.03;;;;;;;22.55;38.82;102207.53;5144770;28;20421;-48
2022/05/27 10:37:28;;;;;;;11.30;3.30;;;;;;;22.20;38.66;102127.75;5146494;28;20429;-47
2022/05/27 10:40:18;;;;;;;12.37;2.77;;;;;;;22.83;38.31;102214.75;5149750;28;20408;-51
2022/05/27 10:42:59;;;;;;;16.57;3.50;;;;;;;22.81;38.34;102216.81;5151056;28;20563;-48
2022/05/27 10:45:42;;;;;;;11.35;3.20;;;;;;;22.79;38.15;102221.56;5148112;28;20441;-53
2022/05/27 10:49:01;;;;;;;9.93;2.92;;;;;;;22.92;38.00;102224.34;5141683;28;20509;-48
2022/05/27 10:51:52;;;;;;;12.13;3.42;;;;;;;22.70;38.05;102230.81;5144217;28;20810;-48
2022/05/27 10:54:40;;;;;;;14.93;4.07;;;;;;;22.50;38.27;102220.75;5155162;28;20746;-53
2022/05/27 11:03:51;;;;;;;13.55;3.55;;;;;;;23.04;37.89;102237.28;5149371;28;20410;-53
2022/05/27 11:06:40;;;;;;;11.93;3.70;;;;;;;23.32;37.44;102234.53;5151255;28;20968;-49
2022/05/27 11:09:30;;;;;;;15.90;4.25;;;;;;;23.53;37.09;102236.28;5146889;28;20406;-47
2022/05/27 11:12:18;;;;;;;10.82;3.58;;;;;;;23.85;36.82;102238.28;5136584;28;20473;-51
2022/05/27 11:15:13;;;;;;;15.68;3.70;;;;;;;23.85;36.65;102243.69;5140385;28;20521;-48
2022/05/27 11:17:59;;;;;;;14.40;3.88;;;;;;;23.89;36.51;102236.00;5139661;28;20507;-52
2022/05/27 11:21:09;;;;;;;12.55;4.00;;;;;;;24.00;36.31;102246.22;5151785;28;20539;-50
2022/05/27 11:24:15;;;;;;;11.30;3.10;;;;;;;23.87;36.40;102238.06;5140653;28;20443;-50
2022/05/27 11:27:04;;;;;;;10.38;3.03;;;;;;;23.71;36.57;102244.66;5146486;28;20921;-51
2022/05/27 11:30:04;;;;;;;16.97;3.37;;;;;;;23.57;36.75;102251.00;5138945;28;20432;-50
2022/05/27 11:33:05;;;;;;;13.38;3.25;;;;;;;23.32;36.76;102261.47;5149535;28;20420;-48
2022/05/27 11:35:56;;;;;;;14.88;4.07;;;;;;;23.22;36.86;102253.75;5126691;28;21841;-51
2022/05/27 11:38:58;;;;;;;14.27;4.13;;;;;;;23.10;36.92;102236.50;5141812;28;20439;-47
2022/05/27 11:41:37;;;;;;;12.43;3.30;;;;;;;23.06;36.73;102243.31;5146209;28;22245;-49
2022/05/27 11:44:22;;;;;;;16.50;4.13;;;;;;;22.96;36.87;102252.59;5149900;28;20429;-49
2022/05/27 11:47:18;;;;;;;19.70;3.83;;;;;;;23.05;36.85;102257.84;5153136;28;20895;-50
2022/05/27 11:50:11;;;;;;;17.90;4.18;;;;;;;23.04;36.92;102256.97;5140717;28;20468;-49
2022/05/27 11:53:06;;;;;;;17.33;3.92;;;;;;;23.11;36.69;102255.16;5139726;28;20579;-53
2022/05/27 11:56:04;;;;;;;11.82;3.22;;;;;;;23.20;36.67;102258.53;5150608;28;20434;-51
2022/05/27 11:58:51;;;;;;;21.65;4.05;;;;;;;23.17;36.67;102261.63;5148051;28;20478;-53
2022/05/27 12:01:36;;;;;;;14.95;3.42;;;;;;;23.07;36.60;102258.44;5151835;28;20575;-55
2022/05/27 12:04:16;;;;;;;14.60;3.85;;;;;;;23.03;36.67;102255.31;5156878;28;20416;-49
2022/05/27 12:06:54;;;;;;;14.40;4.23;;;;;;;22.98;36.79;102277.47;5147822;28;20513;-47
2022/05/27 12:09:37;;;;;;;11.95;4.13;;;;;;;22.95;36.74;102271.66;5148047;28;20564;-49
2022/05/27 12:12:17;;;;;;;17.80;4.05;;;;;;;22.98;36.70;102277.47;5147101;28;20420;-51
2022/05/27 12:14:55;;;;;;;15.55;3.55;;;;;;;23.11;36.48;102270.50;5134171;28;20889;-51
2022/05/27 12:17:40;;;;;;;11.33;3.10;;;;;;;22.91;36.77;102265.78;5147929;28;20809;-51
2022/05/27 12:20:18;;;;;;;18.17;3.50;;;;;;;22.84;36.83;102270.28;5135964;28;20421;-52
2022/05/27 12:22:52;;;;;;;13.02;3.13;;;;;;;22.69;37.09;102274.94;5149401;28;20487;-46
2022/05/27 12:25:32;;;;;;;12.70;4.00;;;;;;;22.71;37.13;102280.97;5151591;28;20897;-48
2022/05/27 12:28:05;;;;;;;16.83;4.32;;;;;;;22.72;37.06;102279.94;5145438;28;20512;-50
2022/05/27 12:30:43;;;;;;;15.40;3.92;;;;;;;22.75;36.98;102279.53;5147242;28;20937;-48
2022/05/27 12:33:20;;;;;;;10.35;3.22;;;;;;;22.79;36.98;102278.97;5138510;28;20511;-48
2022/05/27 12:35:59;;;;;;;14.05;3.17;;;;;;;22.52;36.91;102255.56;5148791;28;21858;-51
2022/05/27 12:38:35;;;;;;;11.97;3.53;;;;;;;22.58;37.23;102270.06;5144327;28;20522;-50
2022/05/27 12:41:12;;;;;;;15.80;3.25;;;;;;;22.51;37.22;102287.00;5147957;28;20428;-47
2022/05/27 12:44:00;;;;;;;14.30;3.55;;;;;;;22.32;37.50;102288.50;5144636;28;20481;-50
2022/05/27 12:46:41;;;;;;;21.97;4.80;;;;;;;22.20;37.33;102268.50;5149665;28;20520;-49